createdAt,value
2022-08-31T00:00:30.413Z,19.00
2022-08-31T00:01:25.586Z,19.01
2022-08-31T00:02:20.824Z,19.01
2022-08-31T00:03:17.305Z,19.02
2022-08-31T00:04:12.490Z,19.02
2022-08-31T00:05:08.295Z,19.02
2022-08-31T00:06:03.580Z,19.04
2022-08-31T00:06:58.796Z,19.06
2022-08-31T00:07:55.592Z,19.06
2022-08-31T00:08:49.765Z,19.06
2022-08-31T00:09:45.599Z,19.05
2022-08-31T00:10:40.760Z,19.01
2022-08-31T00:11:36.080Z,19.01
2022-08-31T00:12:31.925Z,19.04
2022-08-31T00:13:27.106Z,19.08
2022-08-31T00:14:22.339Z,19.12
2022-08-31T00:15:17.581Z,19.15
2022-08-31T00:16:14.314Z,19.16
2022-08-31T00:17:09.453Z,19.17
2022-08-31T00:18:04.743Z,19.19
2022-08-31T00:19:00.624Z,19.19
2022-08-31T00:19:55.922Z,19.21
2022-08-31T00:20:51.117Z,19.20
2022-08-31T00:21:47.495Z,19.20
2022-08-31T00:22:42.862Z,19.19
2022-08-31T00:23:38.610Z,19.19
2022-08-31T00:24:33.753Z,19.21
2022-08-31T00:25:28.973Z,19.21
2022-08-31T00:26:24.680Z,19.22
2022-08-31T00:27:19.905Z,19.22
2022-08-31T00:28:15.741Z,19.22
2022-08-31T00:29:11.073Z,19.21
2022-08-31T00:30:06.234Z,19.19
2022-08-31T00:31:01.968Z,19.18
2022-08-31T00:31:57.160Z,19.17
2022-08-31T00:32:52.300Z,19.18
2022-08-31T00:33:47.579Z,19.19
2022-08-31T00:34:42.759Z,19.18
2022-08-31T00:35:38.154Z,19.17
2022-08-31T00:36:33.592Z,19.18
2022-08-31T00:37:28.636Z,19.16
2022-08-31T00:38:24.383Z,19.14
2022-08-31T00:39:19.551Z,19.13
2022-08-31T00:40:14.752Z,19.13
2022-08-31T00:41:09.882Z,19.13
2022-08-31T00:42:04.906Z,19.12
2022-08-31T00:42:59.916Z,19.13
2022-08-31T00:43:54.987Z,19.13
2022-08-31T00:44:50.015Z,19.13
2022-08-31T00:45:45.234Z,19.11
2022-08-31T00:46:40.407Z,19.11
2022-08-31T00:47:35.435Z,19.09
2022-08-31T00:48:30.448Z,19.10
2022-08-31T00:49:25.554Z,19.09
2022-08-31T00:50:20.576Z,19.10
2022-08-31T00:51:18.940Z,19.08
2022-08-31T00:52:10.684Z,19.06
2022-08-31T00:53:05.735Z,19.03
2022-08-31T00:54:00.803Z,19.02
2022-08-31T00:54:55.932Z,19.03
2022-08-31T00:55:51.212Z,19.04
2022-08-31T00:56:46.281Z,19.04
2022-08-31T00:57:41.307Z,19.02
2022-08-31T00:58:36.319Z,19.02
2022-08-31T00:59:31.354Z,19.02
2022-08-31T01:00:26.415Z,18.99
2022-08-31T01:01:21.482Z,18.99
2022-08-31T01:02:16.587Z,18.98
2022-08-31T01:03:11.826Z,18.97
2022-08-31T01:04:06.895Z,18.95
2022-08-31T01:05:02.623Z,18.93
2022-08-31T01:05:57.847Z,18.90
2022-08-31T01:06:53.686Z,18.88
2022-08-31T01:07:48.832Z,18.86
2022-08-31T01:08:44.183Z,18.82
2022-08-31T01:09:39.919Z,18.80
2022-08-31T01:10:36.151Z,18.78
2022-08-31T01:11:30.350Z,18.78
2022-08-31T01:12:25.388Z,18.78
2022-08-31T01:13:20.436Z,18.78
2022-08-31T01:14:15.447Z,18.79
2022-08-31T01:15:10.557Z,18.78
2022-08-31T01:16:05.676Z,18.76
2022-08-31T01:17:00.602Z,18.75
2022-08-31T01:17:55.637Z,18.73
2022-08-31T01:18:50.689Z,18.70
2022-08-31T01:19:45.757Z,18.69
2022-08-31T01:20:45.828Z,18.67
2022-08-31T01:21:36.935Z,18.64
2022-08-31T01:22:32.375Z,18.64
2022-08-31T01:23:27.434Z,18.61
2022-08-31T01:24:22.360Z,18.59
2022-08-31T01:25:17.416Z,18.59
2022-08-31T01:26:12.474Z,18.59
2022-08-31T01:27:07.473Z,18.58
2022-08-31T01:28:02.632Z,18.57
2022-08-31T01:28:57.704Z,18.55
2022-08-31T01:29:52.741Z,18.55
2022-08-31T01:30:47.813Z,18.56
2022-08-31T01:31:42.879Z,18.56
2022-08-31T01:32:37.917Z,18.59
2022-08-31T01:33:33.770Z,18.62
2022-08-31T01:34:29.045Z,18.65
2022-08-31T01:35:24.225Z,18.66
2022-08-31T01:36:20.110Z,18.65
2022-08-31T01:37:15.352Z,18.63
2022-08-31T01:38:11.213Z,18.63
2022-08-31T01:39:06.350Z,18.62
2022-08-31T01:40:01.754Z,18.61
2022-08-31T01:40:57.451Z,18.58
2022-08-31T01:41:52.739Z,18.60
2022-08-31T01:42:47.891Z,18.60
2022-08-31T01:43:44.298Z,18.60
2022-08-31T01:44:39.471Z,18.60
2022-08-31T01:45:35.310Z,18.61
2022-08-31T01:46:30.543Z,18.63
2022-08-31T01:47:25.729Z,18.68
2022-08-31T01:48:21.559Z,18.70
2022-08-31T01:49:16.727Z,18.71
2022-08-31T01:50:12.628Z,18.73
2022-08-31T01:51:07.659Z,18.72
2022-08-31T01:52:02.880Z,18.68
2022-08-31T01:52:58.641Z,18.66
2022-08-31T01:53:53.909Z,18.64
2022-08-31T01:54:49.321Z,18.59
2022-08-31T01:55:45.473Z,18.55
2022-08-31T01:56:40.762Z,18.52
2022-08-31T01:57:36.638Z,18.51
2022-08-31T01:58:31.937Z,18.52
2022-08-31T01:59:27.257Z,18.52
2022-08-31T02:00:22.988Z,18.53
2022-08-31T02:01:33.067Z,18.55
2022-08-31T02:02:14.965Z,18.57
2022-08-31T02:03:09.156Z,18.59
2022-08-31T02:04:04.471Z,18.63
2022-08-31T02:04:59.614Z,18.68
2022-08-31T02:06:03.035Z,18.70
2022-08-31T02:06:50.017Z,18.67
2022-08-31T02:07:45.050Z,18.70
2022-08-31T02:08:40.155Z,18.72
2022-08-31T02:09:35.167Z,18.72
2022-08-31T02:10:30.222Z,18.74
2022-08-31T02:11:25.323Z,18.75
2022-08-31T02:12:20.361Z,18.77
2022-08-31T02:13:15.433Z,18.76
2022-08-31T02:14:10.462Z,18.75
2022-08-31T02:15:05.509Z,18.72
2022-08-31T02:16:00.580Z,18.72
2022-08-31T02:16:57.221Z,18.72
2022-08-31T02:17:52.760Z,18.72
2022-08-31T02:18:47.356Z,18.70
2022-08-31T02:19:42.421Z,18.70
2022-08-31T02:20:37.460Z,18.70
2022-08-31T02:21:32.461Z,18.69
2022-08-31T02:22:27.501Z,18.69
2022-08-31T02:23:22.569Z,18.67
2022-08-31T02:24:17.608Z,18.63
2022-08-31T02:25:12.613Z,18.62
2022-08-31T02:26:07.674Z,18.60
2022-08-31T02:27:02.718Z,18.55
2022-08-31T02:28:01.544Z,18.50
2022-08-31T02:28:56.578Z,18.46
2022-08-31T02:29:51.618Z,18.44
2022-08-31T02:30:46.658Z,18.39
2022-08-31T02:31:41.725Z,18.33
2022-08-31T02:32:36.778Z,18.28
2022-08-31T02:33:32.818Z,18.26
2022-08-31T02:34:27.926Z,18.24
2022-08-31T02:35:23.407Z,18.20
2022-08-31T02:36:18.564Z,18.18
2022-08-31T02:37:13.566Z,18.15
2022-08-31T02:38:08.605Z,18.14
2022-08-31T02:39:03.658Z,18.12
2022-08-31T02:39:58.854Z,18.11
2022-08-31T02:40:53.936Z,18.07
2022-08-31T02:41:48.924Z,18.05
2022-08-31T02:42:52.341Z,18.00
2022-08-31T02:43:40.201Z,18.00
2022-08-31T02:44:34.307Z,17.95
2022-08-31T02:45:29.315Z,17.96
2022-08-31T02:46:24.424Z,17.94
2022-08-31T02:47:19.454Z,17.96
2022-08-31T02:48:14.491Z,17.99
2022-08-31T02:49:09.534Z,18.02
2022-08-31T02:50:04.807Z,18.01
2022-08-31T02:50:59.664Z,18.00
2022-08-31T02:51:54.710Z,17.99
2022-08-31T02:52:49.714Z,17.97
2022-08-31T02:53:44.710Z,17.98
2022-08-31T02:54:39.930Z,17.98
2022-08-31T02:55:34.811Z,17.95
2022-08-31T02:56:29.852Z,17.93
2022-08-31T02:57:24.859Z,17.92
2022-08-31T02:58:23.987Z,17.90
2022-08-31T02:59:15.044Z,17.86
2022-08-31T03:00:10.205Z,17.85
2022-08-31T03:01:05.236Z,17.88
2022-08-31T03:02:00.517Z,17.90
2022-08-31T03:02:55.516Z,17.90
2022-08-31T03:03:50.491Z,17.92
2022-08-31T03:04:45.613Z,17.93
2022-08-31T03:05:41.649Z,17.91
2022-08-31T03:06:36.729Z,17.88
2022-08-31T03:07:31.804Z,17.85
2022-08-31T03:08:26.897Z,17.82
2022-08-31T03:09:21.988Z,17.79
2022-08-31T03:10:16.997Z,17.79
2022-08-31T03:11:12.080Z,17.77
2022-08-31T03:12:07.154Z,17.76
2022-08-31T03:13:02.160Z,17.74
2022-08-31T03:13:58.820Z,17.72
2022-08-31T03:14:52.533Z,17.67
2022-08-31T03:15:47.671Z,17.64
2022-08-31T03:16:42.778Z,17.64
2022-08-31T03:17:37.932Z,17.64
2022-08-31T03:18:33.207Z,17.64
2022-08-31T03:19:28.371Z,17.63
2022-08-31T03:20:23.581Z,17.66
2022-08-31T03:21:18.766Z,17.68
2022-08-31T03:22:13.930Z,17.71
2022-08-31T03:23:09.081Z,17.71
2022-08-31T03:24:04.278Z,17.70
2022-08-31T03:24:59.713Z,17.69
2022-08-31T03:25:54.742Z,17.70
2022-08-31T03:26:49.955Z,17.71
2022-08-31T03:27:45.142Z,17.72
2022-08-31T03:28:40.211Z,17.68
2022-08-31T03:29:35.253Z,17.67
2022-08-31T03:30:31.523Z,17.69
2022-08-31T03:31:25.509Z,17.68
2022-08-31T03:32:25.140Z,17.68
2022-08-31T03:33:20.449Z,17.70
2022-08-31T03:34:16.107Z,17.71
2022-08-31T03:35:11.594Z,17.72
2022-08-31T03:36:06.788Z,17.76
2022-08-31T03:37:02.135Z,17.77
2022-08-31T03:37:58.340Z,17.80
2022-08-31T03:38:53.540Z,17.83
2022-08-31T03:39:49.288Z,17.89
2022-08-31T03:40:44.638Z,17.96
2022-08-31T03:41:39.949Z,18.02
2022-08-31T03:42:35.770Z,18.10
2022-08-31T03:43:30.945Z,18.17
2022-08-31T03:44:26.823Z,18.23
2022-08-31T03:45:21.949Z,18.29
2022-08-31T03:46:17.459Z,18.34
2022-08-31T03:47:13.050Z,18.37
2022-08-31T03:48:12.242Z,18.38
2022-08-31T03:49:03.547Z,18.36
2022-08-31T03:49:58.748Z,18.35
2022-08-31T03:50:54.620Z,18.37
2022-08-31T03:51:49.836Z,18.41
2022-08-31T03:52:45.120Z,18.45
2022-08-31T03:53:41.266Z,18.49
2022-08-31T03:54:36.607Z,18.52
2022-08-31T03:55:32.353Z,18.55
2022-08-31T03:56:27.626Z,18.58
2022-08-31T03:57:22.935Z,18.60
2022-08-31T03:58:18.611Z,18.61
2022-08-31T03:59:13.802Z,18.63
2022-08-31T04:00:09.543Z,18.63
2022-08-31T04:01:04.856Z,18.65
2022-08-31T04:02:00.263Z,18.62
2022-08-31T04:02:55.899Z,18.61
2022-08-31T04:03:51.054Z,18.63
2022-08-31T04:04:46.229Z,18.64
2022-08-31T04:05:42.491Z,18.66
2022-08-31T04:06:37.812Z,18.68
2022-08-31T04:07:42.398Z,18.69
2022-08-31T04:08:29.860Z,18.68
2022-08-31T04:09:24.111Z,18.67
2022-08-31T04:10:20.610Z,18.67
2022-08-31T04:11:15.814Z,18.68
2022-08-31T04:12:11.560Z,18.69
2022-08-31T04:13:06.721Z,18.70
2022-08-31T04:14:02.057Z,18.69
2022-08-31T04:14:57.915Z,18.68
2022-08-31T04:15:53.173Z,18.68
2022-08-31T04:16:48.328Z,18.65
2022-08-31T04:17:44.724Z,18.64
2022-08-31T04:18:40.049Z,18.64
2022-08-31T04:19:35.801Z,18.64
2022-08-31T04:20:30.959Z,18.65
2022-08-31T04:21:26.174Z,18.65
2022-08-31T04:22:21.960Z,18.65
2022-08-31T04:23:17.333Z,18.62
2022-08-31T04:24:13.096Z,18.63
2022-08-31T04:25:08.195Z,18.63
2022-08-31T04:26:03.419Z,18.63
2022-08-31T04:26:59.189Z,18.61
2022-08-31T04:27:54.366Z,18.62
2022-08-31T04:28:49.636Z,18.61
2022-08-31T04:29:46.130Z,18.57
2022-08-31T04:30:41.487Z,18.57
2022-08-31T04:31:37.159Z,18.53
2022-08-31T04:32:32.460Z,18.51
2022-08-31T04:33:27.886Z,18.51
2022-08-31T04:34:23.057Z,18.49
2022-08-31T04:35:18.994Z,18.47
2022-08-31T04:36:14.087Z,18.47
2022-08-31T04:37:09.326Z,18.43
2022-08-31T04:38:05.184Z,18.35
2022-08-31T04:39:00.413Z,18.26
2022-08-31T04:39:55.760Z,18.19
2022-08-31T04:40:52.403Z,18.11
2022-08-31T04:41:47.227Z,18.07
2022-08-31T04:42:43.054Z,18.01
2022-08-31T04:43:38.254Z,17.97
2022-08-31T04:44:33.747Z,17.96
2022-08-31T04:45:29.461Z,17.96
2022-08-31T04:46:24.777Z,17.96
2022-08-31T04:47:20.492Z,17.95
2022-08-31T04:48:15.735Z,17.90
2022-08-31T04:49:11.109Z,17.88
2022-08-31T04:50:06.184Z,17.87
2022-08-31T04:51:01.414Z,17.86
2022-08-31T04:51:56.499Z,17.90
2022-08-31T04:53:03.122Z,17.89
2022-08-31T04:53:47.623Z,17.84
2022-08-31T04:54:45.879Z,17.81
2022-08-31T04:55:40.912Z,17.79
2022-08-31T04:56:35.961Z,17.78
2022-08-31T04:57:30.979Z,17.79
2022-08-31T04:58:25.981Z,17.79
2022-08-31T04:59:21.009Z,17.82
2022-08-31T05:00:18.065Z,17.82
2022-08-31T05:01:12.383Z,17.85
2022-08-31T05:02:07.852Z,17.83
2022-08-31T05:03:06.673Z,17.85
2022-08-31T05:04:01.939Z,17.85
2022-08-31T05:04:57.247Z,17.86
2022-08-31T05:05:52.577Z,17.88
2022-08-31T05:06:47.651Z,17.90
2022-08-31T05:07:42.721Z,17.91
2022-08-31T05:08:37.795Z,17.94
2022-08-31T05:09:32.950Z,17.95
2022-08-31T05:10:27.914Z,17.93
2022-08-31T05:11:25.149Z,17.93
2022-08-31T05:12:18.198Z,17.91
2022-08-31T05:13:13.233Z,17.89
2022-08-31T05:14:08.304Z,17.87
2022-08-31T05:15:03.358Z,17.88
2022-08-31T05:15:58.426Z,17.87
2022-08-31T05:16:53.412Z,17.85
2022-08-31T05:17:48.432Z,17.82
2022-08-31T05:18:43.518Z,17.83
2022-08-31T05:19:41.138Z,17.82
2022-08-31T05:20:33.816Z,17.79
2022-08-31T05:21:28.614Z,17.75
2022-08-31T05:22:23.685Z,17.74
2022-08-31T05:23:18.850Z,17.73
2022-08-31T05:24:13.852Z,17.71
2022-08-31T05:25:08.887Z,17.71
2022-08-31T05:26:04.019Z,17.73
2022-08-31T05:26:59.648Z,17.72
2022-08-31T05:27:54.990Z,17.69
2022-08-31T05:28:50.338Z,17.65
2022-08-31T05:29:45.676Z,17.65
2022-08-31T05:30:41.063Z,17.62
2022-08-31T05:31:36.446Z,17.63
2022-08-31T05:32:31.772Z,17.61
2022-08-31T05:33:27.303Z,17.60
2022-08-31T05:34:22.507Z,17.59
2022-08-31T05:35:17.821Z,17.59
2022-08-31T05:36:13.189Z,17.59
2022-08-31T05:37:08.539Z,17.58
2022-08-31T05:38:05.780Z,17.62
2022-08-31T05:39:01.546Z,17.89
2022-08-31T05:39:56.383Z,18.28
2022-08-31T05:40:51.708Z,18.57
2022-08-31T05:41:47.029Z,18.74
2022-08-31T05:42:42.349Z,18.87
2022-08-31T05:43:37.449Z,18.88
2022-08-31T05:44:32.437Z,18.83
2022-08-31T05:45:27.522Z,18.87
2022-08-31T05:46:22.821Z,18.94
2022-08-31T05:47:17.618Z,18.94
2022-08-31T05:48:12.686Z,18.93
2022-08-31T05:49:07.750Z,18.94
2022-08-31T05:50:03.674Z,18.94
2022-08-31T05:50:58.752Z,18.87
2022-08-31T05:51:53.825Z,18.90
2022-08-31T05:52:48.872Z,18.90
2022-08-31T05:53:43.942Z,18.80
2022-08-31T05:54:39.039Z,18.69
2022-08-31T05:55:34.113Z,18.55
2022-08-31T05:56:29.157Z,18.44
2022-08-31T05:57:26.703Z,18.34
2022-08-31T05:58:19.283Z,18.25
2022-08-31T05:59:14.384Z,18.18
2022-08-31T06:00:09.483Z,18.12
2022-08-31T06:01:04.570Z,18.06
2022-08-31T06:01:59.685Z,18.03
2022-08-31T06:02:54.767Z,18.01
2022-08-31T06:03:49.981Z,17.98
2022-08-31T06:04:45.385Z,17.96
2022-08-31T06:05:40.964Z,17.92
2022-08-31T06:06:36.254Z,17.90
2022-08-31T06:07:31.635Z,17.89
2022-08-31T06:08:27.366Z,17.86
2022-08-31T06:09:22.079Z,17.82
2022-08-31T06:10:17.087Z,17.82
2022-08-31T06:11:12.085Z,17.79
2022-08-31T06:12:07.190Z,17.81
2022-08-31T06:13:02.220Z,17.80
2022-08-31T06:13:57.210Z,17.81
2022-08-31T06:14:53.435Z,17.82
2022-08-31T06:15:47.398Z,17.83
2022-08-31T06:16:42.396Z,17.81
2022-08-31T06:17:37.410Z,17.81
2022-08-31T06:18:32.438Z,17.82
2022-08-31T06:19:27.434Z,17.82
2022-08-31T06:20:22.508Z,17.84
2022-08-31T06:21:17.511Z,17.86
2022-08-31T06:22:14.017Z,17.89
2022-08-31T06:23:09.195Z,17.89
2022-08-31T06:24:04.286Z,17.90
2022-08-31T06:24:59.324Z,17.90
2022-08-31T06:25:54.441Z,17.87
2022-08-31T06:26:49.477Z,17.89
2022-08-31T06:27:44.540Z,17.91
2022-08-31T06:28:39.601Z,17.90
2022-08-31T06:29:35.602Z,17.87
2022-08-31T06:30:31.012Z,17.88
2022-08-31T06:31:26.495Z,17.89
2022-08-31T06:32:21.875Z,17.86
2022-08-31T06:33:17.402Z,17.85
2022-08-31T06:34:12.796Z,17.86
2022-08-31T06:35:08.131Z,17.86
2022-08-31T06:36:03.597Z,17.85
2022-08-31T06:36:59.183Z,17.86
2022-08-31T06:37:56.258Z,17.85
2022-08-31T06:38:51.710Z,17.84
2022-08-31T06:39:47.185Z,17.84
2022-08-31T06:40:42.892Z,17.83
2022-08-31T06:41:38.187Z,17.81
2022-08-31T06:42:33.622Z,17.81
2022-08-31T06:43:30.312Z,17.77
2022-08-31T06:44:24.299Z,17.78
2022-08-31T06:45:19.463Z,17.79
2022-08-31T06:46:14.696Z,17.78
2022-08-31T06:47:09.739Z,17.80
2022-08-31T06:48:04.806Z,17.82
2022-08-31T06:48:59.869Z,17.82
2022-08-31T06:49:54.922Z,17.83
2022-08-31T06:50:49.976Z,17.86
2022-08-31T06:51:45.013Z,17.89
2022-08-31T06:52:40.060Z,17.91
2022-08-31T06:53:35.099Z,17.95
2022-08-31T06:54:30.830Z,17.95
2022-08-31T06:55:25.208Z,17.94
2022-08-31T06:56:21.196Z,17.95
2022-08-31T06:57:15.254Z,18.01
2022-08-31T06:58:13.784Z,18.01
2022-08-31T06:59:08.826Z,18.00
2022-08-31T07:00:03.847Z,18.03
2022-08-31T07:00:59.217Z,18.05
2022-08-31T07:01:55.036Z,18.04
2022-08-31T07:02:53.078Z,18.04
2022-08-31T07:03:46.855Z,18.03
2022-08-31T07:04:41.353Z,18.04
2022-08-31T07:05:36.783Z,18.05
2022-08-31T07:06:32.279Z,18.09
2022-08-31T07:07:27.733Z,18.12
2022-08-31T07:08:23.295Z,18.14
2022-08-31T07:09:18.661Z,18.13
2022-08-31T07:10:14.288Z,18.13
2022-08-31T07:11:09.825Z,18.15
2022-08-31T07:12:05.169Z,18.15
2022-08-31T07:13:00.737Z,18.15
2022-08-31T07:13:55.952Z,18.16
2022-08-31T07:14:54.824Z,18.18
2022-08-31T07:15:46.045Z,18.20
2022-08-31T07:16:41.200Z,18.24
2022-08-31T07:17:36.156Z,18.24
2022-08-31T07:18:31.158Z,18.25
2022-08-31T07:19:26.191Z,18.29
2022-08-31T07:20:21.213Z,18.32
2022-08-31T07:21:19.219Z,18.33
2022-08-31T07:22:15.450Z,18.34
2022-08-31T07:23:09.252Z,18.36
2022-08-31T07:24:04.318Z,18.35
2022-08-31T07:25:00.439Z,18.32
2022-08-31T07:25:55.861Z,18.37
2022-08-31T07:26:51.320Z,18.39
2022-08-31T07:27:46.753Z,18.41
2022-08-31T07:28:42.354Z,18.40
2022-08-31T07:29:37.805Z,18.40
2022-08-31T07:30:33.583Z,18.39
2022-08-31T07:31:28.724Z,18.36
2022-08-31T07:32:24.266Z,18.36
2022-08-31T07:33:19.799Z,18.34
2022-08-31T07:34:15.212Z,18.35
2022-08-31T07:35:10.756Z,18.35
2022-08-31T07:36:06.184Z,18.38
2022-08-31T07:37:01.657Z,18.41
2022-08-31T07:37:56.675Z,18.43
2022-08-31T07:38:51.687Z,18.43
2022-08-31T07:39:46.751Z,18.45
2022-08-31T07:40:41.912Z,18.45
2022-08-31T07:41:36.873Z,18.46
2022-08-31T07:42:31.935Z,18.47
2022-08-31T07:43:26.943Z,18.51
2022-08-31T07:44:24.587Z,18.47
2022-08-31T07:45:19.573Z,18.44
2022-08-31T07:46:14.717Z,18.42
2022-08-31T07:47:09.702Z,18.43
2022-08-31T07:48:04.832Z,18.41
2022-08-31T07:48:59.913Z,18.41
2022-08-31T07:49:55.287Z,18.38
2022-08-31T07:50:50.821Z,18.34
2022-08-31T07:51:46.302Z,18.29
2022-08-31T07:52:41.811Z,18.27
2022-08-31T07:53:37.200Z,18.28
2022-08-31T07:54:32.828Z,18.26
2022-08-31T07:55:28.226Z,18.24
2022-08-31T07:56:23.709Z,18.24
2022-08-31T07:57:19.530Z,18.22
2022-08-31T07:58:15.056Z,18.24
2022-08-31T07:59:11.090Z,18.25
2022-08-31T08:00:06.103Z,18.26
2022-08-31T08:01:01.498Z,18.26
2022-08-31T08:01:57.122Z,18.30
2022-08-31T08:02:53.467Z,18.32
2022-08-31T08:03:48.051Z,18.29
2022-08-31T08:04:43.527Z,18.27
2022-08-31T08:05:39.291Z,18.30
2022-08-31T08:06:34.680Z,18.26
2022-08-31T08:07:30.138Z,18.25
2022-08-31T08:08:25.665Z,18.27
2022-08-31T08:09:24.541Z,18.20
2022-08-31T08:10:16.263Z,18.18
2022-08-31T08:11:11.459Z,18.22
2022-08-31T08:12:07.531Z,18.26
2022-08-31T08:13:01.819Z,18.32
2022-08-31T08:13:56.509Z,18.34
2022-08-31T08:14:51.811Z,18.41
2022-08-31T08:15:46.932Z,18.48
2022-08-31T08:16:43.678Z,18.54
2022-08-31T08:17:39.207Z,18.55
2022-08-31T08:18:34.735Z,18.56
2022-08-31T08:19:30.332Z,18.60
2022-08-31T08:20:35.225Z,18.64
2022-08-31T08:21:22.154Z,18.71
2022-08-31T08:22:30.590Z,18.81
2022-08-31T08:23:13.889Z,18.88
2022-08-31T08:24:07.527Z,18.91
2022-08-31T08:25:03.035Z,19.00
2022-08-31T08:25:58.302Z,19.06
2022-08-31T08:26:54.581Z,19.09
2022-08-31T08:27:49.064Z,19.15
2022-08-31T08:28:44.430Z,19.19
2022-08-31T08:29:43.966Z,19.21
2022-08-31T08:30:39.363Z,19.21
2022-08-31T08:31:34.881Z,19.29
2022-08-31T08:32:30.360Z,19.38
2022-08-31T08:33:25.978Z,19.41
2022-08-31T08:34:21.446Z,19.39
2022-08-31T08:35:17.887Z,19.40
2022-08-31T08:36:12.269Z,19.34
2022-08-31T08:37:07.656Z,19.28
2022-08-31T08:38:07.583Z,19.27
2022-08-31T08:38:58.543Z,19.27
2022-08-31T08:39:54.008Z,19.28
2022-08-31T08:40:49.676Z,19.29
2022-08-31T08:41:45.177Z,19.27
2022-08-31T08:42:40.628Z,19.16
2022-08-31T08:43:36.067Z,19.13
2022-08-31T08:44:31.499Z,19.11
2022-08-31T08:45:27.244Z,19.08
2022-08-31T08:46:34.533Z,19.09
2022-08-31T08:47:20.836Z,19.04
2022-08-31T08:48:13.311Z,19.00
2022-08-31T08:49:08.368Z,18.95
2022-08-31T08:50:03.426Z,18.96
2022-08-31T08:50:58.485Z,18.98
2022-08-31T08:51:53.727Z,19.01
2022-08-31T08:52:48.766Z,19.01
2022-08-31T08:53:43.842Z,19.01
2022-08-31T08:54:38.954Z,19.03
2022-08-31T08:55:33.885Z,19.04
2022-08-31T08:56:33.717Z,19.03
2022-08-31T08:57:25.191Z,19.01
2022-08-31T08:58:19.276Z,19.02
2022-08-31T08:59:19.036Z,19.04
2022-08-31T09:00:10.282Z,19.01
2022-08-31T09:01:04.371Z,19.02
2022-08-31T09:01:59.514Z,19.01
2022-08-31T09:02:55.014Z,18.99
2022-08-31T09:03:50.410Z,18.96
2022-08-31T09:04:45.864Z,18.91
2022-08-31T09:05:45.083Z,18.83
2022-08-31T09:06:45.768Z,18.75
2022-08-31T09:07:37.093Z,18.74
2022-08-31T09:08:31.460Z,18.74
2022-08-31T09:09:26.904Z,18.72
2022-08-31T09:10:22.375Z,18.71
2022-08-31T09:11:17.776Z,18.71
2022-08-31T09:12:15.063Z,18.70
2022-08-31T09:13:08.492Z,18.64
2022-08-31T09:14:03.856Z,18.65
2022-08-31T09:14:59.242Z,18.61
2022-08-31T09:15:54.725Z,18.54
2022-08-31T09:16:50.091Z,18.50
2022-08-31T09:17:45.640Z,18.48
2022-08-31T09:18:40.984Z,18.44
2022-08-31T09:19:35.997Z,18.41
2022-08-31T09:20:31.178Z,18.42
2022-08-31T09:21:26.209Z,18.44
2022-08-31T09:22:21.287Z,18.47
2022-08-31T09:23:16.397Z,18.48
2022-08-31T09:24:11.532Z,18.48
2022-08-31T09:25:06.587Z,18.49
2022-08-31T09:26:04.963Z,18.50
2022-08-31T09:26:57.592Z,18.51
2022-08-31T09:27:51.693Z,18.56
2022-08-31T09:28:48.748Z,18.50
2022-08-31T09:29:43.865Z,18.50
2022-08-31T09:30:38.897Z,18.50
2022-08-31T09:31:33.894Z,18.48
2022-08-31T09:32:29.346Z,18.36
2022-08-31T09:33:24.792Z,18.36
2022-08-31T09:34:20.153Z,18.36
2022-08-31T09:35:15.755Z,18.39
2022-08-31T09:36:11.199Z,18.41
2022-08-31T09:37:06.549Z,18.45
2022-08-31T09:38:01.928Z,18.50
2022-08-31T09:38:57.343Z,18.53
2022-08-31T09:39:52.802Z,18.55
2022-08-31T09:40:48.387Z,18.56
2022-08-31T09:41:43.579Z,18.54
2022-08-31T09:42:39.013Z,18.49
2022-08-31T09:43:34.402Z,18.51
2022-08-31T09:44:29.849Z,18.50
2022-08-31T09:45:24.959Z,18.48
2022-08-31T09:46:20.057Z,18.46
2022-08-31T09:47:15.107Z,18.48
2022-08-31T09:48:10.173Z,18.46
2022-08-31T09:49:05.194Z,18.44
2022-08-31T09:50:00.235Z,18.44
2022-08-31T09:50:55.279Z,18.44
2022-08-31T09:51:52.673Z,18.45
2022-08-31T09:52:47.818Z,18.41
2022-08-31T09:53:42.884Z,18.42
2022-08-31T09:54:39.419Z,18.40
2022-08-31T09:55:33.047Z,18.37
2022-08-31T09:56:28.090Z,18.40
2022-08-31T09:57:23.271Z,18.40
2022-08-31T09:58:18.330Z,18.39
2022-08-31T09:59:13.419Z,18.38
2022-08-31T10:00:08.749Z,18.39
2022-08-31T10:01:04.252Z,18.37
2022-08-31T10:01:59.878Z,18.37
2022-08-31T10:02:55.254Z,18.36
2022-08-31T10:03:50.717Z,18.35
2022-08-31T10:04:45.764Z,18.34
2022-08-31T10:05:40.809Z,18.34
2022-08-31T10:06:35.835Z,18.32
2022-08-31T10:07:32.662Z,18.30
2022-08-31T10:08:27.707Z,18.30
2022-08-31T10:09:22.755Z,18.33
2022-08-31T10:10:31.118Z,18.36
2022-08-31T10:11:13.784Z,18.31
2022-08-31T10:12:07.966Z,18.31
2022-08-31T10:13:02.893Z,18.32
2022-08-31T10:13:58.065Z,18.33
2022-08-31T10:14:53.964Z,18.33
2022-08-31T10:15:49.440Z,18.35
2022-08-31T10:16:45.043Z,18.37
2022-08-31T10:17:40.403Z,18.35
2022-08-31T10:18:35.827Z,18.36
2022-08-31T10:19:31.037Z,18.36
2022-08-31T10:20:29.782Z,18.35
2022-08-31T10:21:21.117Z,18.32
2022-08-31T10:22:16.182Z,18.31
2022-08-31T10:23:11.404Z,18.26
2022-08-31T10:24:06.541Z,18.24
2022-08-31T10:25:01.582Z,18.24
2022-08-31T10:25:56.648Z,18.27
2022-08-31T10:26:51.749Z,18.29
2022-08-31T10:27:46.754Z,18.26
2022-08-31T10:28:41.730Z,18.25
2022-08-31T10:29:38.007Z,18.30
2022-08-31T10:30:32.540Z,18.31
2022-08-31T10:31:28.303Z,18.32
2022-08-31T10:32:23.812Z,18.37
2022-08-31T10:33:19.337Z,18.38
2022-08-31T10:34:14.262Z,18.37
2022-08-31T10:35:09.379Z,18.39
2022-08-31T10:36:04.502Z,18.40
2022-08-31T10:36:59.554Z,18.43
2022-08-31T10:37:54.507Z,18.48
2022-08-31T10:38:49.581Z,18.54
2022-08-31T10:39:44.696Z,18.59
2022-08-31T10:40:39.937Z,18.61
2022-08-31T10:41:34.936Z,18.62
2022-08-31T10:42:30.134Z,18.66
2022-08-31T10:43:25.133Z,18.70
2022-08-31T10:44:20.143Z,18.71
2022-08-31T10:45:18.452Z,18.68
2022-08-31T10:46:10.424Z,18.58
2022-08-31T10:47:05.494Z,18.58
2022-08-31T10:48:00.475Z,18.63
2022-08-31T10:48:55.484Z,18.67
2022-08-31T10:49:50.843Z,18.71
2022-08-31T10:50:46.377Z,18.74
2022-08-31T10:51:41.835Z,18.80
2022-08-31T10:52:36.799Z,18.85
2022-08-31T10:53:32.147Z,18.87
2022-08-31T10:54:27.266Z,18.91
2022-08-31T10:55:22.356Z,18.90
2022-08-31T10:56:17.579Z,18.86
2022-08-31T10:57:12.761Z,18.83
2022-08-31T10:58:08.724Z,18.87
2022-08-31T10:59:02.793Z,18.96
2022-08-31T11:00:01.833Z,19.04
2022-08-31T11:00:57.218Z,18.98
2022-08-31T11:01:51.837Z,19.01
2022-08-31T11:02:46.765Z,19.08
2022-08-31T11:03:41.826Z,19.10
2022-08-31T11:04:37.024Z,19.14
2022-08-31T11:05:31.964Z,19.20
2022-08-31T11:06:27.219Z,19.22
2022-08-31T11:07:23.311Z,19.23
2022-08-31T11:08:18.799Z,19.23
2022-08-31T11:09:14.924Z,19.25
2022-08-31T11:10:09.810Z,19.27
2022-08-31T11:11:05.447Z,19.31
2022-08-31T11:12:01.309Z,19.32
2022-08-31T11:12:56.141Z,19.35
2022-08-31T11:13:51.585Z,19.38
2022-08-31T11:14:47.126Z,19.45
2022-08-31T11:15:42.676Z,19.45
2022-08-31T11:16:37.822Z,19.46
2022-08-31T11:17:32.834Z,19.47
2022-08-31T11:18:27.898Z,19.52
2022-08-31T11:19:23.012Z,19.52
2022-08-31T11:20:18.107Z,19.53
2022-08-31T11:21:13.483Z,19.55
2022-08-31T11:22:08.270Z,19.53
2022-08-31T11:23:05.733Z,19.53
2022-08-31T11:24:00.860Z,19.52
2022-08-31T11:24:56.006Z,19.45
2022-08-31T11:25:50.999Z,19.49
2022-08-31T11:26:46.109Z,19.53
2022-08-31T11:27:41.204Z,19.55
2022-08-31T11:28:36.315Z,19.55
2022-08-31T11:29:31.286Z,19.56
2022-08-31T11:30:26.680Z,19.51
2022-08-31T11:31:22.262Z,19.51
2022-08-31T11:32:17.745Z,19.55
2022-08-31T11:33:13.383Z,19.61
2022-08-31T11:34:16.938Z,19.66
2022-08-31T11:35:05.737Z,19.66
2022-08-31T11:36:03.844Z,19.71
2022-08-31T11:36:56.214Z,19.76
2022-08-31T11:37:50.547Z,19.77
2022-08-31T11:38:45.975Z,19.78
2022-08-31T11:39:41.369Z,19.78
2022-08-31T11:40:36.859Z,19.76
2022-08-31T11:41:32.247Z,19.84
2022-08-31T11:42:27.677Z,19.94
2022-08-31T11:43:22.691Z,20.01
2022-08-31T11:44:17.690Z,20.14
2022-08-31T11:45:14.189Z,20.30
2022-08-31T11:46:10.666Z,20.40
2022-08-31T11:47:05.888Z,20.45
2022-08-31T11:47:59.624Z,20.52
2022-08-31T11:48:54.769Z,20.58
2022-08-31T11:49:49.690Z,20.58
2022-08-31T11:50:44.812Z,20.59
2022-08-31T11:51:41.358Z,20.61
2022-08-31T11:52:35.511Z,20.66